Lebanon, IN (46052)

2:25 AM EDT on March 30, 2017 (GMT -0400)
St. Peter's Episcopal Church | | Change Station

Elev 938 ft 40.05 °N, 86.45 °W | Updated 5 seconds ago

Rain
Rain
50.9 °F
Feels Like 50.9 °F
N
4.2
Wind Variable Wind from East
Gusts 4.9 mph

Today
High -- | Low -- °F
--% Chance of Precip.
Yesterday
High -- | Low -- °F
Precip. -- in
Pressure 29.91 in
Visibility 10.0 miles
Clouds Scattered Clouds 3700 ft
Scattered Clouds 4400 ft
Mostly Cloudy 10000 ft
Dew Point 48 °F
Humidity 90%
Rainfall 0.02 in
Snow Depth Not available.
7:32 AM 8:08 PM
Waxing Crescent, 6% visible
METAR KTYQ 300615Z AUTO 09009KT 10SM SCT037 SCT044 BKN100 10/06 A2991 RMK AO2 LTG DSNT NW T01000058
Pressure 29.91 in
Visibility 10.0 miles
Clouds Scattered Clouds 3700 ft
Scattered Clouds 4400 ft
Mostly Cloudy 10000 ft
Dew Point 48 °F
Humidity 90%
Rainfall 0.02 in
Snow Depth Not available.
7:32 AM 8:08 PM
Waxing Crescent, 6% visible
METAR KTYQ 300615Z AUTO 09009KT 10SM SCT037 SCT044 BKN100 10/06 A2991 RMK AO2 LTG DSNT NW T01000058

Get Severe Weather Alerts

Thanks for signing up!

Be on the lookout for a verification email in your inbox.

You'll start receiving the daily forecast at 8 AM.

×

10-Day Weather Forecast

Almanac

Astronomy

Mar. 30, 2017 Rise Set
Actual Time
Civil Twilight
Nautical Twilight
Astronomical Twilight
Moon
Length of Visible Light
Length of Day
Tomorrow will be .
, % of the Moon is Illuminated

Today's Extremes

State Highs State Lows

Community

WunderPhotos

Upload Photos

1,962,540 photos uploaded!

WunderBlog® & News

Nearby

Air Quality

  Air Quality AQ Index Pollutant
Not available.

Snow Depth

Station Depth Elevation

Earthquake Activity

City Distance Mag. Time & Date
Minimum magnitude displayed is 2.5.

Earthquake Activity

City Distance Mag. Time & Date
Minimum magnitude displayed is 2.5.

Coastal Water Temperatures

Place Temperature

Stations

Nearby Weather Stations

Station Location Temp. Windchill Dew Point Humidity Wind Precip. Elev Updated Type
                   

Watches & Warnings

There are currently no watches in effect.